Time;durP1;ratioP1;P1;durP2;ratioP2;P2;SDS_P1;SDS_P2;PMS_P1;PMS_P2;Temp;Humidity;BMP_temperature;BMP_pressure;BME280_temperature;BME280_humidity;BME280_pressure;Samples;Min_cycle;Max_cycle;Signal;HPM_P1;HPM_P2
2022/11/29 00:01:18;;;;;;;;;;;;;;;8.50;78.46;98001.69;7389640;19;19948;-74
2022/11/29 00:03:44;;;;;;;;;;;;;;;8.63;78.07;98001.31;7390580;19;19970;-75
2022/11/29 00:06:12;;;;;;;;;;;;;;;8.77;77.03;97995.50;7391110;19;19945;-75
2022/11/29 00:08:40;;;;;;;;;;;;;;;8.64;77.55;97996.88;7388089;19;19923;-74
2022/11/29 00:11:10;;;;;;;;;;;;;;;8.52;77.76;97996.28;7389737;19;19914;-75
2022/11/29 00:13:37;;;;;;;;;;;;;;;8.54;78.19;97999.59;7384150;19;20506;-75
2022/11/29 00:16:05;;;;;;;;;;;;;;;8.53;78.18;97997.91;7385687;19;19919;-74
2022/11/29 00:18:31;;;;;;;;;;;;;;;8.54;78.15;97992.50;7387892;19;20497;-74
2022/11/29 00:20:58;;;;;;;;;;;;;;;8.61;77.84;97990.09;7390017;19;19979;-74
2022/11/29 00:23:25;;;;;;;;;;;;;;;8.60;78.03;97995.53;7389231;19;20376;-74
2022/11/29 00:25:51;;;;;;;;;;;;;;;8.52;78.16;97997.09;7386826;19;19927;-74
2022/11/29 00:28:18;;;;;;;;;;;;;;;8.57;78.27;97996.66;7387543;19;20335;-75
2022/11/29 00:30:44;;;;;;;;;;;;;;;8.55;78.11;97993.34;7387007;19;19935;-75
2022/11/29 00:33:11;;;;;;;;;;;;;;;8.59;78.25;97994.69;7386905;19;19918;-75
2022/11/29 00:35:37;;;;;;;;;;;;;;;8.59;78.17;97993.88;7388204;19;19922;-75
2022/11/29 00:38:04;;;;;;;;;;;;;;;8.54;78.36;97995.16;7387709;19;19990;-75
2022/11/29 00:40:31;;;;;;;;;;;;;;;8.58;78.22;97993.03;7387753;19;20420;-74
2022/11/29 00:42:57;;;;;;;;;;;;;;;8.56;78.26;97995.00;7385406;19;19926;-74
2022/11/29 00:45:24;;;;;;;;;;;;;;;8.57;78.17;97996.66;7385921;19;19943;-74
2022/11/29 00:47:50;;;;;;;;;;;;;;;8.66;78.11;97997.53;7387064;19;19939;-74
2022/11/29 00:50:17;;;;;;;;;;;;;;;8.51;78.61;97992.00;7389051;19;19940;-75
2022/11/29 00:52:44;;;;;;;;;;;;;;;8.57;78.22;97997.47;7388890;19;19915;-74
2022/11/29 00:55:10;;;;;;;;;;;;;;;8.48;78.43;97990.50;7387532;19;20474;-74
2022/11/29 00:57:37;;;;;;;;;;;;;;;8.55;78.38;97993.34;7388428;19;19948;-74
2022/11/29 01:00:03;;;;;;;;;;;;;;;8.57;78.41;97997.47;7388920;19;19991;-74
2022/11/29 01:02:30;;;;;;;;;;;;;;;8.61;78.22;98000.66;7386389;19;19959;-73
2022/11/29 01:04:57;;;;;;;;;;;;;;;8.58;78.22;98000.94;7384055;19;19926;-74
2022/11/29 01:07:23;;;;;;;;;;;;;;;8.51;78.49;97997.28;7387880;19;19926;-74
2022/11/29 01:09:50;;;;;;;;;;;;;;;8.56;78.64;98001.09;7386892;19;20607;-74
2022/11/29 01:12:17;;;;;;;;;;;;;;;8.71;78.32;98011.09;7388419;19;20342;-74
2022/11/29 01:14:43;;;;;;;;;;;;;;;8.55;78.61;97998.59;7385785;19;19935;-75
2022/11/29 01:17:10;;;;;;;;;;;;;;;8.46;78.74;98007.44;7390479;19;19976;-75
2022/11/29 01:19:37;;;;;;;;;;;;;;;8.57;78.78;98005.38;7382354;19;19957;-75
2022/11/29 01:22:04;;;;;;;;;;;;;;;8.63;78.66;97996.03;7383578;19;19911;-75
2022/11/29 01:24:30;;;;;;;;;;;;;;;8.65;78.54;98001.16;7387211;19;19919;-75
2022/11/29 01:26:57;;;;;;;;;;;;;;;8.67;78.47;98001.84;7389394;19;19911;-74
2022/11/29 01:29:23;;;;;;;;;;;;;;;8.76;77.54;98006.19;7389695;19;19918;-74
2022/11/29 01:31:50;;;;;;;;;;;;;;;8.66;78.08;98005.44;7391807;19;19939;-74
2022/11/29 01:34:17;;;;;;;;;;;;;;;8.61;78.07;98007.72;7389336;19;19922;-74
2022/11/29 01:36:43;;;;;;;;;;;;;;;8.62;78.36;98007.56;7381350;19;19915;-74
2022/11/29 01:39:10;;;;;;;;;;;;;;;8.57;78.29;98008.03;7390014;19;19926;-74
2022/11/29 01:41:36;;;;;;;;;;;;;;;8.61;nan;98005.94;7392908;19;19915;-75
2022/11/29 01:44:03;;;;;;;;;;;;;;;8.61;78.50;98000.66;7389011;19;20225;-74
2022/11/29 01:46:36;;;;;;;;;;;;;;;8.63;78.45;98006.56;7392441;19;19922;-74
2022/11/29 01:49:05;;;;;;;;;;;;;;;8.74;78.18;98009.00;7390006;19;19948;-75
2022/11/29 01:51:31;;;;;;;;;;;;;;;8.74;78.07;98000.22;7391107;19;20374;-74
2022/11/29 01:53:58;;;;;;;;;;;;;;;8.61;78.47;98007.72;7388417;19;19948;-74
2022/11/29 01:56:25;;;;;;;;;;;;;;;8.62;78.70;98009.38;7389091;19;19915;-74
2022/11/29 01:58:51;;;;;;;;;;;;;;;8.72;78.39;98004.84;7391267;19;19919;-74
2022/11/29 02:01:18;;;;;;;;;;;;;;;8.69;78.44;98000.72;7391186;19;19919;-74
2022/11/29 02:03:44;;;;;;;;;;;;;;;8.81;77.88;98008.38;7391905;19;19923;-74
2022/11/29 02:06:11;;;;;;;;;;;;;;;8.62;78.20;98002.28;7394323;19;19925;-74
2022/11/29 02:08:39;;;;;;;;;;;;;;;8.67;78.46;98000.03;7389446;19;20555;-75
2022/11/29 02:11:12;;;;;;;;;;;;;;;8.78;78.22;98005.06;7387108;19;19919;-74
2022/11/29 02:13:43;;;;;;;;;;;;;;;8.76;78.35;97996.47;7391236;19;19919;-74
2022/11/29 02:16:16;;;;;;;;;;;;;;;8.70;78.67;98001.53;7390505;19;19922;-74
2022/11/29 02:19:02;;;;;;;;;;;;;;;8.77;78.44;98010.50;7391290;19;19914;-75
2022/11/29 02:21:49;;;;;;;;;;;;;;;8.65;78.71;98004.63;7391668;19;19919;-74
2022/11/29 02:24:18;;;;;;;;;;;;;;;8.65;78.90;98009.91;7387465;19;19940;-74
2022/11/29 02:26:45;;;;;;;;;;;;;;;8.63;78.79;98009.22;7387183;19;20580;-74
2022/11/29 02:29:30;;;;;;;;;;;;;;;8.69;78.74;98003.34;7389697;19;19940;-75
2022/11/29 02:32:15;;;;;;;;;;;;;;;8.68;78.82;97999.03;7388791;19;19907;-75
2022/11/29 02:35:00;;;;;;;;;;;;;;;8.49;79.18;98007.13;7382215;19;19940;-75
2022/11/29 02:37:45;;;;;;;;;;;;;;;8.58;79.09;98003.56;7379856;19;20564;-75
2022/11/29 02:40:12;;;;;;;;;;;;;;;8.62;79.06;98004.94;7383589;19;19919;-75
2022/11/29 02:42:47;;;;;;;;;;;;;;;8.71;78.94;98009.28;7381933;19;19935;-75
2022/11/29 02:45:21;;;;;;;;;;;;;;;8.74;78.80;98009.00;7384567;19;20271;-74
2022/11/29 02:47:52;;;;;;;;;;;;;;;8.74;78.91;98014.28;7385075;19;19961;-74
2022/11/29 02:50:48;;;;;;;;;;;;;;;8.72;78.73;98016.22;7380753;19;19959;-74
2022/11/29 02:53:34;;;;;;;;;;;;;;;8.64;79.01;98016.16;7383696;19;20596;-74
2022/11/29 02:56:03;;;;;;;;;;;;;;;8.75;79.00;98018.56;7385181;19;19953;-74
2022/11/29 02:58:33;;;;;;;;;;;;;;;8.86;78.65;98016.66;7383695;19;19918;-73
2022/11/29 03:01:04;;;;;;;;;;;;;;;8.64;79.01;98013.53;7381049;19;20358;-73
2022/11/29 03:03:33;;;;;;;;;;;;;;;8.61;79.07;98011.19;7388138;19;19925;-74
2022/11/29 03:06:22;;;;;;;;;;;;;;;8.70;79.14;98018.19;7389052;19;19996;-73
2022/11/29 03:09:12;;;;;;;;;;;;;;;8.79;79.07;98017.28;7387217;19;20879;-74
2022/11/29 03:11:54;;;;;;;;;;;;;;;8.71;79.07;98016.38;7385980;19;19930;-74
2022/11/29 03:14:27;;;;;;;;;;;;;;;8.71;79.04;98019.81;7389285;19;19959;-73
2022/11/29 03:17:11;;;;;;;;;;;;;;;8.75;79.03;98021.19;7381746;19;19919;-74
2022/11/29 03:19:41;;;;;;;;;;;;;;;8.76;78.84;98022.00;7381727;19;19943;-74
2022/11/29 03:22:07;;;;;;;;;;;;;;;8.78;78.77;98025.34;7387963;19;19930;-74
2022/11/29 03:24:37;;;;;;;;;;;;;;;8.89;78.55;98027.72;7387013;19;19926;-74
2022/11/29 03:27:05;;;;;;;;;;;;;;;8.97;78.36;98030.41;7387769;19;19935;-74
2022/11/29 03:29:34;;;;;;;;;;;;;;;8.82;78.48;98026.69;7387111;19;19928;-74
2022/11/29 03:32:04;;;;;;;;;;;;;;;8.84;78.34;98027.34;7387359;19;19918;-74
2022/11/29 03:34:47;;;;;;;;;;;;;;;8.69;79.09;98035.00;7382211;19;20243;-74
2022/11/29 03:37:25;;;;;;;;;;;;;;;8.70;79.15;98028.72;7386311;19;19982;-74
2022/11/29 03:39:54;;;;;;;;;;;;;;;8.64;79.21;98032.00;7390006;19;19919;-74
2022/11/29 03:42:25;;;;;;;;;;;;;;;8.74;79.17;98030.09;7385010;19;19936;-74
2022/11/29 03:45:10;;;;;;;;;;;;;;;8.86;78.82;98028.03;7386486;19;19922;-74
2022/11/29 03:47:39;;;;;;;;;;;;;;;8.92;78.63;98027.41;7385882;19;20350;-74
2022/11/29 03:50:08;;;;;;;;;;;;;;;9.02;78.16;98032.59;7382041;19;19944;-74
2022/11/29 03:52:41;;;;;;;;;;;;;;;8.98;78.18;98037.38;7384787;19;20282;-74
2022/11/29 03:55:18;;;;;;;;;;;;;;;8.89;78.42;98037.44;7382119;19;19926;-74
2022/11/29 03:58:00;;;;;;;;;;;;;;;8.89;78.30;98042.72;7382503;19;19934;-74
2022/11/29 04:00:33;;;;;;;;;;;;;;;8.89;nan;98042.72;7387204;19;19926;-74
2022/11/29 04:03:12;;;;;;;;;;;;;;;8.88;78.46;98031.34;7387872;19;19953;-73
2022/11/29 04:05:51;;;;;;;;;;;;;;;8.86;78.87;98043.03;7381306;19;19953;-74
2022/11/29 04:08:36;;;;;;;;;;;;;;;8.96;78.42;98038.50;7383847;19;19915;-74
2022/11/29 04:11:22;;;;;;;;;;;;;;;8.94;78.43;98040.47;7389687;19;20043;-73
2022/11/29 04:13:56;;;;;;;;;;;;;;;9.00;78.41;98042.47;7385560;19;19930;-74
2022/11/29 04:16:23;;;;;;;;;;;;;;;9.03;78.07;98044.84;7385154;19;19930;-74
2022/11/29 04:19:15;;;;;;;;;;;;;;;9.11;77.99;98047.53;7387053;19;20365;-74
2022/11/29 04:21:51;;;;;;;;;;;;;;;9.04;77.91;98049.13;7385921;19;20346;-74
2022/11/29 04:24:17;;;;;;;;;;;;;;;8.90;78.47;98050.50;7379183;19;19922;-74
2022/11/29 04:26:53;;;;;;;;;;;;;;;9.07;78.10;98043.53;7384100;19;19915;-73
2022/11/29 04:29:28;;;;;;;;;;;;;;;9.07;78.00;98051.44;7386102;19;20332;-74
2022/11/29 04:32:15;;;;;;;;;;;;;;;9.08;78.04;98050.44;7384621;19;19923;-73
2022/11/29 04:35:00;;;;;;;;;;;;;;;8.95;78.52;98057.94;7382074;19;19947;-74
2022/11/29 04:37:35;;;;;;;;;;;;;;;9.10;78.30;98061.69;7381958;19;19931;-74
2022/11/29 04:40:07;;;;;;;;;;;;;;;9.10;78.03;98061.69;7382580;19;19923;-73
2022/11/29 04:42:33;;;;;;;;;;;;;;;9.07;78.30;98064.63;7383295;19;19918;-73
2022/11/29 04:45:03;;;;;;;;;;;;;;;9.07;78.13;98061.19;7386012;19;19915;-74
2022/11/29 04:47:42;;;;;;;;;;;;;;;9.15;78.09;98062.06;7388253;19;19922;-74
2022/11/29 04:50:27;;;;;;;;;;;;;;;9.18;77.92;98069.66;7385187;19;19939;-73
2022/11/29 04:52:57;;;;;;;;;;;;;;;9.25;77.55;98071.69;7386799;19;19968;-73
2022/11/29 04:55:24;;;;;;;;;;;;;;;9.15;77.76;98069.97;7385924;19;19923;-74
2022/11/29 04:58:05;;;;;;;;;;;;;;;9.05;78.06;98069.22;7379580;19;19919;-74
2022/11/29 05:00:34;;;;;;;;;;;;;;;9.11;77.97;98073.06;7388047;19;19951;-74
2022/11/29 05:03:03;;;;;;;;;;;;;;;9.09;78.11;98073.22;7384911;19;19953;-73
2022/11/29 05:05:41;;;;;;;;;;;;;;;9.14;77.99;98068.31;7385998;19;19940;-74
2022/11/29 05:08:16;;;;;;;;;;;;;;;9.14;78.42;98078.06;7383967;19;19931;-73
2022/11/29 05:10:59;;;;;;;;;;;;;;;9.25;77.83;98076.97;7383028;19;19943;-74
2022/11/29 05:13:41;;;;;;;;;;;;;;;9.13;78.29;98081.66;7379871;19;20351;-74
2022/11/29 05:16:28;;;;;;;;;;;;;;;9.05;78.67;98076.31;7381341;19;19943;-74
2022/11/29 05:19:10;;;;;;;;;;;;;;;9.19;78.32;98081.88;7381899;19;19923;-74
2022/11/29 05:21:49;;;;;;;;;;;;;;;9.08;78.66;98078.66;7382521;19;19940;-74
2022/11/29 05:24:22;;;;;;;;;;;;;;;9.12;78.56;98082.66;7380448;19;20025;-74
2022/11/29 05:27:14;;;;;;;;;;;;;;;9.08;78.89;98087.38;7385706;19;19936;-74
2022/11/29 05:29:47;;;;;;;;;;;;;;;9.04;78.79;98093.16;7376053;19;19919;-74
2022/11/29 05:32:27;;;;;;;;;;;;;;;9.14;78.63;98091.25;7382240;19;19918;-74
2022/11/29 05:35:16;;;;;;;;;;;;;;;9.23;78.30;98093.78;7380517;19;19936;-74
2022/11/29 05:37:45;;;;;;;;;;;;;;;9.15;78.66;98088.44;7379429;19;19907;-73
2022/11/29 05:40:12;;;;;;;;;;;;;;;9.14;78.79;98089.44;7378485;19;19911;-73
2022/11/29 05:42:39;;;;;;;;;;;;;;;9.21;78.50;98097.56;7383932;19;19982;-73
2022/11/29 05:45:21;;;;;;;;;;;;;;;9.20;78.52;98096.72;7380684;19;19919;-74
2022/11/29 05:47:51;;;;;;;;;;;;;;;9.28;78.37;98105.69;7376509;19;19930;-73
2022/11/29 05:50:20;;;;;;;;;;;;;;;9.26;78.51;98097.91;7378187;19;19925;-74
2022/11/29 05:52:56;;;;;;;;;;;;;;;9.21;78.86;98105.47;7379808;19;20301;-74
2022/11/29 05:55:26;;;;;;;;;;;;;;;9.31;78.20;98097.47;7380547;19;20343;-75
2022/11/29 05:58:01;;;;;;;;;;;;;;;9.42;78.03;98107.75;7381204;19;20635;-74
2022/11/29 06:00:39;;;;;;;;;;;;;;;9.41;78.24;98106.94;7377209;19;19922;-74
2022/11/29 06:03:09;;;;;;;;;;;;;;;9.28;78.59;98105.69;7378606;19;19939;-75
2022/11/29 06:05:48;;;;;;;;;;;;;;;9.37;78.38;98107.41;7378678;19;19919;-74
2022/11/29 06:08:24;;;;;;;;;;;;;;;9.41;78.52;98111.41;7385162;19;19973;-75
2022/11/29 06:11:04;;;;;;;;;;;;;;;9.40;78.47;98113.22;7387497;19;20331;-74
2022/11/29 06:13:54;;;;;;;;;;;;;;;9.34;78.31;98110.34;7380739;19;19915;-74
2022/11/29 06:16:37;;;;;;;;;;;;;;;9.28;78.79;98116.25;7383073;19;20353;-75
2022/11/29 06:19:25;;;;;;;;;;;;;;;9.25;78.87;98121.84;7384348;19;19922;-74
2022/11/29 06:22:10;;;;;;;;;;;;;;;9.29;78.72;98118.72;7382810;19;19919;-75
2022/11/29 06:24:40;;;;;;;;;;;;;;;9.17;79.18;98131.34;7382351;19;19972;-74
2022/11/29 06:27:07;;;;;;;;;;;;;;;9.25;78.81;98132.41;7381911;19;19923;-75
2022/11/29 06:29:44;;;;;;;;;;;;;;;9.34;78.61;98128.84;7384327;19;19943;-75
2022/11/29 06:32:20;;;;;;;;;;;;;;;9.32;78.78;98134.28;7383002;19;19931;-74
2022/11/29 06:34:49;;;;;;;;;;;;;;;9.27;78.71;98138.34;7380068;19;19930;-74
2022/11/29 06:37:43;;;;;;;;;;;;;;;9.34;78.79;98136.75;7380509;19;20563;-74
2022/11/29 06:40:10;;;;;;;;;;;;;;;9.22;79.15;98144.91;7382409;19;19927;-74
2022/11/29 06:42:37;;;;;;;;;;;;;;;9.34;78.76;98142.03;7385761;19;19923;-75
2022/11/29 06:45:04;;;;;;;;;;;;;;;9.32;78.98;98146.63;7383848;19;19936;-74
2022/11/29 06:47:41;;;;;;;;;;;;;;;9.25;78.73;98142.97;7385541;19;20254;-74
2022/11/29 06:50:17;;;;;;;;;;;;;;;9.24;79.13;98147.38;7382690;19;19922;-75
2022/11/29 06:52:53;;;;;;;;;;;;;;;9.14;79.02;98151.94;7385220;19;19926;-74
2022/11/29 06:55:22;;;;;;;;;;;;;;;9.20;79.25;98148.69;7382588;19;20502;-74
2022/11/29 06:58:07;;;;;;;;;;;;;;;9.32;79.03;98152.75;7382297;19;19954;-75
2022/11/29 07:00:54;;;;;;;;;;;;;;;9.37;78.81;98154.91;7388771;19;19957;-74
2022/11/29 07:03:34;;;;;;;;;;;;;;;9.29;79.04;98160.13;7380622;19;19934;-74
2022/11/29 07:06:09;;;;;;;;;;;;;;;9.18;79.28;98159.41;7384520;19;20043;-74
2022/11/29 07:08:36;;;;;;;;;;;;;;;9.29;79.03;98163.59;7383185;19;19950;-74
2022/11/29 07:11:03;;;;;;;;;;;;;;;9.35;78.91;98164.84;7378533;19;19922;-74
2022/11/29 07:13:29;;;;;;;;;;;;;;;9.35;78.97;98165.66;7385138;19;19949;-75
2022/11/29 07:16:02;;;;;;;;;;;;;;;9.34;78.91;98171.91;7383102;19;19923;-74
2022/11/29 07:18:32;;;;;;;;;;;;;;;9.25;79.02;98178.09;7385364;19;19925;-76
2022/11/29 07:21:06;;;;;;;;;;;;;;;9.29;79.05;98168.06;7386549;19;19919;-74
2022/11/29 07:23:34;;;;;;;;;;;;;;;9.16;79.14;98179.00;7386201;19;19927;-75
2022/11/29 07:26:07;;;;;;;;;;;;;;;9.26;79.00;98173.66;7381819;19;20651;-75
2022/11/29 07:28:34;;;;;;;;;;;;;;;9.21;79.16;98182.84;7384140;19;19915;-75
2022/11/29 07:31:11;;;;;;;;;;;;;;;9.22;79.00;98181.88;7386636;19;19923;-75
2022/11/29 07:34:13;;;;;;;;;;;;;;;9.32;78.85;98184.44;7386825;19;19922;-74
2022/11/29 07:36:44;;;;;;;;;;;;;;;9.41;78.52;98186.16;7390199;19;19923;-75
2022/11/29 07:39:14;;;;;;;;;;;;;;;9.40;78.64;98186.28;7390835;19;19930;-74
2022/11/29 07:41:52;;;;;;;;;;;;;;;9.26;79.13;98186.84;7393737;19;19926;-75
2022/11/29 07:44:29;;;;;;;;;;;;;;;9.29;78.86;98184.72;7391544;19;19943;-75
2022/11/29 07:46:56;;;;;;;;;;;;;;;9.25;78.99;98179.91;7393574;19;20275;-74
2022/11/29 07:49:24;;;;;;;;;;;;;;;9.30;79.09;98190.84;7393693;19;19929;-74
2022/11/29 07:51:50;;;;;;;;;;;;;;;9.30;79.14;98193.50;7393717;19;20437;-75
2022/11/29 07:54:17;;;;;;;;;;;;;;;9.29;78.87;98194.47;7389781;19;19922;-73
2022/11/29 07:56:47;;;;;;;;;;;;;;;9.30;79.00;98193.50;7392722;19;19910;-74
2022/11/29 07:59:15;;;;;;;;;;;;;;;9.27;78.85;98196.41;7388074;19;19935;-74
2022/11/29 08:01:41;;;;;;;;;;;;;;;9.35;78.67;98201.78;7388251;19;20350;-73
2022/11/29 08:04:08;;;;;;;;;;;;;;;9.41;78.89;98194.06;7385745;19;20266;-76
2022/11/29 08:06:35;;;;;;;;;;;;;;;9.43;78.71;98204.50;7390859;19;20414;-76
2022/11/29 08:09:02;;;;;;;;;;;;;;;9.49;78.47;98208.34;7389373;19;20597;-75
2022/11/29 08:11:28;;;;;;;;;;;;;;;9.52;78.50;98197.47;7389582;19;19926;-75
2022/11/29 08:13:56;;;;;;;;;;;;;;;9.53;78.27;98205.25;7387877;19;19933;-76
2022/11/29 08:16:23;;;;;;;;;;;;;;;9.56;78.21;98204.94;7391023;19;19918;-75
2022/11/29 08:18:49;;;;;;;;;;;;;;;9.52;78.16;98205.38;7383274;19;19926;-75
2022/11/29 08:21:18;;;;;;;;;;;;;;;9.49;78.39;98205.69;7387149;19;19935;-75
2022/11/29 08:23:46;;;;;;;;;;;;;;;9.36;78.70;98208.72;7390929;19;19939;-75
2022/11/29 08:26:12;;;;;;;;;;;;;;;9.39;78.83;98216.34;7389487;19;19944;-75
2022/11/29 08:28:39;;;;;;;;;;;;;;;9.54;78.42;98211.34;7387678;19;19953;-75
2022/11/29 08:31:07;;;;;;;;;;;;;;;9.50;78.59;98209.97;7391286;19;20571;-75
2022/11/29 08:33:38;;;;;;;;;;;;;;;9.54;78.52;98212.16;7388681;19;20350;-75
2022/11/29 08:36:23;;;;;;;;;;;;;;;9.65;78.28;98219.84;7385398;19;20047;-76
2022/11/29 08:38:49;;;;;;;;;;;;;;;9.61;78.39;98218.50;7386667;19;19931;-75
2022/11/29 08:41:24;;;;;;;;;;;;;;;9.65;78.54;98224.31;7390447;19;19918;-75
2022/11/29 08:43:51;;;;;;;;;;;;;;;9.63;78.38;98221.81;7389004;19;20350;-75
2022/11/29 08:46:17;;;;;;;;;;;;;;;9.63;78.42;98226.25;7387271;19;19988;-75
2022/11/29 08:48:45;;;;;;;;;;;;;;;9.54;78.48;98227.19;7388445;19;19923;-76
2022/11/29 08:51:12;;;;;;;;;;;;;;;9.52;78.66;98229.97;7386333;19;20269;-76
2022/11/29 08:53:41;;;;;;;;;;;;;;;9.62;78.30;98235.19;7385350;19;19919;-75
2022/11/29 08:56:09;;;;;;;;;;;;;;;9.51;78.83;98230.97;7386980;19;20277;-74
2022/11/29 08:58:56;;;;;;;;;;;;;;;9.45;nan;98229.78;7382726;19;19946;-75
2022/11/29 09:01:22;;;;;;;;;;;;;;;9.48;78.74;98230.41;7388961;19;20383;-75
2022/11/29 09:03:58;;;;;;;;;;;;;;;9.58;78.42;98229.34;7388383;19;20627;-76
2022/11/29 09:06:26;;;;;;;;;;;;;;;9.53;78.51;98234.28;7388706;19;19936;-76
2022/11/29 09:08:53;;;;;;;;;;;;;;;9.32;78.86;98247.81;7381275;19;19926;-76
2022/11/29 09:11:21;;;;;;;;;;;;;;;9.50;78.68;98246.94;7380693;19;20323;-75
2022/11/29 09:13:49;;;;;;;;;;;;;;;9.50;78.70;98245.13;7383778;19;19923;-76
2022/11/29 09:16:17;;;;;;;;;;;;;;;9.61;78.50;98250.19;7387028;19;19923;-75
2022/11/29 09:18:44;;;;;;;;;;;;;;;9.61;78.59;98255.47;7386325;19;19927;-77
2022/11/29 09:21:17;;;;;;;;;;;;;;;9.61;78.55;98244.06;7387416;19;20303;-74
2022/11/29 09:23:43;;;;;;;;;;;;;;;9.64;78.34;98244.59;7387983;19;19947;-76
2022/11/29 09:26:10;;;;;;;;;;;;;;;9.59;78.46;98243.41;7383768;19;19922;-75
2022/11/29 09:28:37;;;;;;;;;;;;;;;9.55;78.70;98253.44;7382791;19;19927;-76
2022/11/29 09:31:07;;;;;;;;;;;;;;;9.67;78.19;98254.88;7384960;19;19923;-74
2022/11/29 09:33:34;;;;;;;;;;;;;;;9.64;78.79;98252.53;7385765;19;19943;-76
2022/11/29 09:36:01;;;;;;;;;;;;;;;9.76;78.55;98254.94;7386580;19;19918;-76
2022/11/29 09:38:28;;;;;;;;;;;;;;;9.49;78.81;98261.97;7387277;19;20282;-74
2022/11/29 09:40:55;;;;;;;;;;;;;;;9.57;78.81;98259.41;7384908;19;19944;-76
2022/11/29 09:43:30;;;;;;;;;;;;;;;9.75;78.30;98262.03;7386762;19;20002;-76
2022/11/29 09:46:16;;;;;;;;;;;;;;;9.60;78.76;98268.84;7385155;19;19930;-75
2022/11/29 09:48:56;;;;;;;;;;;;;;;9.64;78.33;98271.03;7385332;19;19919;-75
2022/11/29 09:51:40;;;;;;;;;;;;;;;9.71;78.36;98267.75;7388338;19;19948;-76
2022/11/29 09:54:13;;;;;;;;;;;;;;;9.69;78.36;98270.56;7383938;19;19932;-75
2022/11/29 09:56:44;;;;;;;;;;;;;;;9.79;78.13;98271.28;7380371;19;19935;-76
2022/11/29 09:59:16;;;;;;;;;;;;;;;9.69;78.26;98270.56;7381283;19;19918;-75
2022/11/29 10:01:45;;;;;;;;;;;;;;;9.74;77.99;98278.03;7385623;19;19943;-76
2022/11/29 10:04:18;;;;;;;;;;;;;;;9.84;78.09;98281.41;7383587;19;19919;-77
2022/11/29 10:06:51;;;;;;;;;;;;;;;9.78;78.07;98271.47;7386158;19;19935;-75
2022/11/29 10:09:20;;;;;;;;;;;;;;;9.93;77.78;98277.03;7386009;19;19971;-75
2022/11/29 10:11:47;;;;;;;;;;;;;;;10.03;77.60;98275.09;7386606;19;19940;-76
2022/11/29 10:14:16;;;;;;;;;;;;;;;9.85;78.03;98280.44;7382183;19;19931;-77
2022/11/29 10:16:44;;;;;;;;;;;;;;;9.81;78.09;98277.25;7382374;19;19926;-76
2022/11/29 10:19:14;;;;;;;;;;;;;;;9.60;78.40;98277.56;7381271;19;19926;-75
2022/11/29 10:21:42;;;;;;;;;;;;;;;9.76;77.78;98282.16;7387799;19;19952;-76
2022/11/29 10:24:10;;;;;;;;;;;;;;;9.67;78.45;98283.91;7383731;19;19943;-76
2022/11/29 10:26:36;;;;;;;;;;;;;;;9.54;78.58;98283.47;7386718;19;20010;-75
2022/11/29 10:29:03;;;;;;;;;;;;;;;9.65;78.19;98269.22;7384504;19;19915;-75
2022/11/29 10:31:34;;;;;;;;;;;;;;;9.46;78.92;98278.13;7384106;19;19915;-77
2022/11/29 10:34:06;;;;;;;;;;;;;;;9.70;78.34;98274.03;7379283;19;19918;-75
2022/11/29 10:36:41;;;;;;;;;;;;;;;9.89;77.99;98273.84;7387311;19;20341;-75
2022/11/29 10:39:20;;;;;;;;;;;;;;;9.96;77.82;98279.38;7382738;19;19922;-75
2022/11/29 10:41:48;;;;;;;;;;;;;;;10.02;77.56;98276.91;7384981;19;20032;-76
2022/11/29 10:44:15;;;;;;;;;;;;;;;9.88;77.72;98269.56;7382285;19;19923;-76
2022/11/29 10:46:42;;;;;;;;;;;;;;;9.94;77.61;98270.75;7378316;19;19907;-75
2022/11/29 10:49:11;;;;;;;;;;;;;;;9.77;77.63;98275.06;7375017;19;19947;-76
2022/11/29 10:51:37;;;;;;;;;;;;;;;9.84;77.66;98276.13;7379781;19;19927;-77
2022/11/29 10:54:13;;;;;;;;;;;;;;;9.71;77.96;98273.03;7381445;19;19923;-75
2022/11/29 10:56:40;;;;;;;;;;;;;;;9.85;77.62;98277.81;7361870;19;20412;-74
2022/11/29 10:59:08;;;;;;;;;;;;;;;9.71;77.99;98273.03;7384243;19;19914;-76
2022/11/29 11:01:36;;;;;;;;;;;;;;;9.73;77.94;98266.63;7378913;19;19918;-75
2022/11/29 11:04:03;;;;;;;;;;;;;;;9.59;77.92;98275.94;7376867;19;19926;-75
2022/11/29 11:06:43;;;;;;;;;;;;;;;9.69;78.00;98273.22;7381501;19;19918;-75
2022/11/29 11:09:13;;;;;;;;;;;;;;;9.75;77.52;98274.41;7384922;19;19943;-75
2022/11/29 11:11:43;;;;;;;;;;;;;;;9.74;78.00;98275.38;7388914;19;19914;-76
2022/11/29 11:14:28;;;;;;;;;;;;;;;9.56;78.07;98276.25;7386062;19;19927;-75
2022/11/29 11:16:55;;;;;;;;;;;;;;;9.58;78.36;98282.19;7394503;19;19915;-74
2022/11/29 11:19:21;;;;;;;;;;;;;;;9.85;77.54;98277.81;7388736;19;20368;-75
2022/11/29 11:21:48;;;;;;;;;;;;;;;9.65;77.79;98272.66;7389790;19;19914;-75
2022/11/29 11:24:27;;;;;;;;;;;;;;;9.75;77.76;98274.41;7387976;19;19922;-75
2022/11/29 11:26:54;;;;;;;;;;;;;;;9.62;77.84;98278.25;7392281;19;19922;-78
2022/11/29 11:29:22;;;;;;;;;;;;;;;9.48;78.09;98273.53;7390164;19;19930;-75
2022/11/29 11:31:53;;;;;;;;;;;;;;;9.52;78.64;98266.94;7391734;19;19915;-75
2022/11/29 11:34:25;;;;;;;;;;;;;;;9.54;78.27;98270.28;7391353;19;19919;-75
2022/11/29 11:36:53;;;;;;;;;;;;;;;9.52;78.43;98274.88;7390639;19;20336;-74
2022/11/29 11:39:20;;;;;;;;;;;;;;;9.44;78.59;98280.91;7386024;19;21001;-74
2022/11/29 11:44:51;;;;;;;;;;;;;;;9.57;78.28;98275.25;7392936;19;19931;-75
2022/11/29 11:47:17;;;;;;;;;;;;;;;9.53;78.61;98287.09;7390717;19;19954;-75
2022/11/29 11:49:53;;;;;;;;;;;;;;;9.36;78.79;98288.75;7387975;19;19918;-74
2022/11/29 11:52:29;;;;;;;;;;;;;;;9.63;77.99;98287.00;7393410;19;20269;-75
2022/11/29 11:55:04;;;;;;;;;;;;;;;9.54;78.51;98285.28;7388369;19;19910;-75
2022/11/29 11:57:30;;;;;;;;;;;;;;;9.74;77.96;98278.03;7391306;19;19915;-75
2022/11/29 11:59:57;;;;;;;;;;;;;;;9.59;78.04;98288.31;7385028;19;19918;-76
2022/11/29 12:02:39;;;;;;;;;;;;;;;9.72;77.85;98299.31;7392628;19;19979;-75
2022/11/29 12:05:10;;;;;;;;;;;;;;;9.49;78.40;98292.84;7390823;19;19923;-75
2022/11/29 12:07:42;;;;;;;;;;;;;;;9.48;78.47;98297.28;7391229;19;19907;-75
2022/11/29 12:10:29;;;;;;;;;;;;;;;9.53;78.38;98295.03;7389856;19;19946;-76
2022/11/29 12:12:55;;;;;;;;;;;;;;;9.49;78.60;98298.13;7385382;19;19919;-76
2022/11/29 12:15:30;;;;;;;;;;;;;;;9.56;78.33;98300.00;7387090;19;19934;-75
2022/11/29 12:18:11;;;;;;;;;;;;;;;9.67;78.43;98302.41;7390919;19;19927;-76
2022/11/29 12:20:40;;;;;;;;;;;;;;;9.68;78.53;98300.59;7390216;19;20465;-77
2022/11/29 12:23:15;;;;;;;;;;;;;;;9.79;78.23;98302.16;7389589;19;19925;-76
2022/11/29 12:26:10;;;;;;;;;;;;;;;9.81;77.75;98297.56;7392683;19;20396;-76
2022/11/29 12:28:45;;;;;;;;;;;;;;;9.78;77.83;98304.00;7387771;19;19929;-76
2022/11/29 12:31:11;;;;;;;;;;;;;;;9.96;77.42;98305.78;7384661;19;19933;-75
2022/11/29 12:33:58;;;;;;;;;;;;;;;9.94;77.54;98308.56;7391466;19;19950;-75
2022/11/29 12:36:37;;;;;;;;;;;;;;;9.75;77.99;98319.31;7388477;19;19918;-75
2022/11/29 12:39:06;;;;;;;;;;;;;;;9.65;78.49;98322.84;7389206;19;19924;-75
2022/11/29 12:41:42;;;;;;;;;;;;;;;9.71;78.16;98317.97;7390541;19;19914;-75
2022/11/29 12:44:31;;;;;;;;;;;;;;;9.71;77.81;98324.06;7384409;19;20002;-75
2022/11/29 12:47:16;;;;;;;;;;;;;;;9.71;78.13;98316.13;7387953;19;19923;-77
2022/11/29 12:50:06;;;;;;;;;;;;;;;9.67;78.29;98323.53;7387852;19;19930;-75
2022/11/29 12:52:36;;;;;;;;;;;;;;;9.78;77.75;98322.47;7389569;19;20363;-75
2022/11/29 12:55:05;;;;;;;;;;;;;;;9.77;78.11;98323.47;7388825;19;19926;-75
2022/11/29 12:57:44;;;;;;;;;;;;;;;9.79;78.05;98323.31;7386773;19;20339;-74
2022/11/29 13:00:12;;;;;;;;;;;;;;;9.77;78.25;98319.97;7385994;19;20605;-75
2022/11/29 13:02:58;;;;;;;;;;;;;;;9.78;77.90;98319.00;7386402;19;19915;-76
2022/11/29 13:05:44;;;;;;;;;;;;;;;9.57;78.14;98322.78;7386003;19;19918;-74
2022/11/29 13:08:35;;;;;;;;;;;;;;;9.55;78.16;98326.56;7384189;19;20363;-75
2022/11/29 13:11:11;;;;;;;;;;;;;;;9.54;78.66;98320.44;7383745;19;19919;-74
2022/11/29 13:13:44;;;;;;;;;;;;;;;9.61;78.17;98324.16;7381360;19;19915;-75
2022/11/29 13:16:10;;;;;;;;;;;;;;;9.71;78.30;98328.53;7383601;19;19915;-75
2022/11/29 13:19:07;;;;;;;;;;;;;;;9.79;77.81;98336.50;7381425;19;19922;-74
2022/11/29 13:21:39;;;;;;;;;;;;;;;9.66;78.03;98336.88;7380148;19;20235;-75
2022/11/29 13:24:08;;;;;;;;;;;;;;;9.57;78.27;98332.53;7384436;19;19957;-75
2022/11/29 13:26:36;;;;;;;;;;;;;;;9.70;78.05;98340.09;7388558;19;19961;-75
2022/11/29 13:29:03;;;;;;;;;;;;;;;9.57;78.16;98332.53;7385858;19;19931;-74